createdAt,value
2022-08-24T05:52:25.654Z,87.46
2022-08-24T05:54:57.006Z,87.28
2022-08-24T05:57:23.941Z,87.15
2022-08-24T05:59:50.649Z,86.86
2022-08-24T06:02:17.843Z,87.60
2022-08-24T06:04:45.050Z,86.74
2022-08-24T06:07:11.814Z,87.32
2022-08-24T06:09:39.492Z,86.81
2022-08-24T06:12:06.585Z,87.52
2022-08-24T06:14:34.403Z,87.26
2022-08-24T06:17:01.707Z,86.81
2022-08-24T06:19:28.194Z,87.08
2022-08-24T06:21:55.231Z,86.46
2022-08-24T06:24:45.330Z,87.37
2022-08-24T06:27:21.521Z,87.35
2022-08-24T06:29:49.071Z,87.89
2022-08-24T06:32:15.485Z,88.95
2022-08-24T06:34:41.795Z,89.21
2022-08-24T06:37:08.114Z,88.42
2022-08-24T06:39:34.595Z,88.15
2022-08-24T06:42:00.916Z,87.17
2022-08-24T06:44:27.424Z,88.47
2022-08-24T06:46:53.877Z,87.22
2022-08-24T06:49:20.224Z,87.04
2022-08-24T06:51:50.622Z,86.75
2022-08-24T06:54:20.909Z,86.67
2022-08-24T06:56:47.226Z,88.40
2022-08-24T06:59:13.531Z,88.32
2022-08-24T07:01:39.876Z,87.76
2022-08-24T07:04:06.205Z,87.95
2022-08-24T07:06:32.535Z,87.46
2022-08-24T07:08:58.900Z,87.37
2022-08-24T07:11:25.503Z,88.05
2022-08-24T07:13:51.961Z,87.82
2022-08-24T07:16:19.330Z,87.23
2022-08-24T07:18:49.861Z,87.54
2022-08-24T07:21:19.292Z,87.54
2022-08-24T07:23:46.302Z,87.40
2022-08-24T07:26:21.779Z,87.86
2022-08-24T07:28:52.391Z,88.45
2022-08-24T07:31:19.007Z,87.91
2022-08-24T07:33:45.388Z,88.27
2022-08-24T07:36:12.851Z,88.22
2022-08-24T07:38:48.913Z,88.25
2022-08-24T07:41:38.232Z,87.75
2022-08-24T07:44:01.546Z,89.07
2022-08-24T07:46:28.361Z,87.96
2022-08-24T07:49:05.041Z,88.07
2022-08-24T07:51:44.980Z,87.41
2022-08-24T07:54:13.857Z,87.70
2022-08-24T07:56:40.538Z,87.55
2022-08-24T07:59:10.930Z,88.74
2022-08-24T08:01:39.290Z,88.63
2022-08-24T08:04:06.189Z,88.55
2022-08-24T08:06:32.473Z,88.27
2022-08-24T08:08:58.954Z,87.09
2022-08-24T08:11:25.273Z,87.35
2022-08-24T08:13:51.569Z,87.49
2022-08-24T08:16:18.024Z,86.94
2022-08-24T08:18:45.530Z,87.88
2022-08-24T08:21:32.153Z,87.46
2022-08-24T08:24:16.605Z,89.19
2022-08-24T08:26:49.261Z,88.31
2022-08-24T08:29:15.844Z,86.96
2022-08-24T08:31:42.699Z,86.62
2022-08-24T08:34:09.756Z,86.60
2022-08-24T08:36:36.579Z,86.79
2022-08-24T08:39:03.128Z,87.87
2022-08-24T08:41:49.967Z,87.65
2022-08-24T08:44:30.111Z,88.32
2022-08-24T08:46:59.401Z,88.52
2022-08-24T08:49:41.156Z,87.91
2022-08-24T08:52:07.528Z,87.81
2022-08-24T08:54:44.357Z,88.57
2022-08-24T08:57:19.990Z,87.09
2022-08-24T08:59:55.938Z,87.77
2022-08-24T09:02:30.647Z,86.10
2022-08-24T09:05:10.777Z,86.57
2022-08-24T09:08:02.258Z,87.71
2022-08-24T09:11:07.434Z,86.29
2022-08-24T09:13:49.466Z,86.48
2022-08-24T09:16:34.449Z,86.46
2022-08-24T09:19:19.460Z,85.80
2022-08-24T09:21:49.802Z,85.65
2022-08-24T09:24:29.403Z,86.47
2022-08-24T09:27:09.581Z,85.48
2022-08-24T09:29:54.713Z,85.46
2022-08-24T09:32:28.522Z,85.50
2022-08-24T09:35:00.268Z,85.80
2022-08-24T09:37:36.777Z,84.73
2022-08-24T09:40:13.395Z,84.37
2022-08-24T09:42:52.154Z,85.51
2022-08-24T09:45:44.457Z,86.11
2022-08-24T09:48:20.495Z,85.57
2022-08-24T09:50:46.800Z,85.19
2022-08-24T09:53:31.293Z,85.27
2022-08-24T09:56:00.716Z,84.59
2022-08-24T09:58:46.076Z,84.33
2022-08-24T10:01:30.982Z,84.22
2022-08-24T10:03:57.359Z,84.27
2022-08-24T10:06:48.709Z,84.11
2022-08-24T10:09:33.965Z,85.16
2022-08-24T10:12:15.589Z,84.11
2022-08-24T10:14:44.656Z,82.88
2022-08-24T10:17:29.906Z,83.27
2022-08-24T10:19:56.267Z,81.44
2022-08-24T10:22:22.559Z,81.27
2022-08-24T10:25:03.028Z,82.26
2022-08-24T10:27:49.769Z,82.39
2022-08-24T10:30:16.134Z,81.29
2022-08-24T10:33:17.064Z,82.23
2022-08-24T10:35:52.519Z,82.31
2022-08-24T10:38:53.072Z,83.07
2022-08-24T10:41:25.281Z,82.14
2022-08-24T10:44:10.327Z,82.16
2022-08-24T10:46:59.741Z,82.13
2022-08-24T10:49:45.090Z,80.71
2022-08-24T10:52:12.172Z,79.57
2022-08-24T10:54:38.639Z,79.86
2022-08-24T10:57:15.126Z,80.04
2022-08-24T10:59:54.978Z,79.94
2022-08-24T11:02:31.700Z,79.86
2022-08-24T11:04:59.716Z,80.33
2022-08-24T11:07:26.366Z,80.82
2022-08-24T11:09:55.868Z,81.11
2022-08-24T11:12:32.542Z,80.57
2022-08-24T11:15:04.227Z,79.77
2022-08-24T11:17:32.252Z,79.13
2022-08-24T11:19:59.324Z,79.71
2022-08-24T11:22:28.814Z,79.93
2022-08-24T11:24:58.547Z,80.22
2022-08-24T11:27:27.919Z,80.09
2022-08-24T11:29:55.479Z,79.36
2022-08-24T11:32:33.884Z,77.81
2022-08-24T11:35:01.986Z,77.75
2022-08-24T11:37:35.267Z,78.25
2022-08-24T11:40:02.254Z,77.95
2022-08-24T11:42:36.014Z,78.14
2022-08-24T11:45:14.774Z,77.15
2022-08-24T11:47:53.341Z,77.23
2022-08-24T11:50:19.628Z,77.06
2022-08-24T11:52:45.921Z,77.34
2022-08-24T11:55:24.197Z,77.98
2022-08-24T11:57:59.110Z,77.84
2022-08-24T12:00:32.688Z,75.84
2022-08-24T12:03:05.733Z,76.74
2022-08-24T12:05:47.413Z,76.50
2022-08-24T12:08:21.669Z,75.38
2022-08-24T12:11:00.019Z,76.28
2022-08-24T12:13:58.884Z,76.24
2022-08-24T12:16:33.569Z,75.73
2022-08-24T12:19:07.007Z,76.15
2022-08-24T12:21:36.389Z,75.84
2022-08-24T12:24:03.767Z,75.75
2022-08-24T12:26:36.294Z,75.12
2022-08-24T12:29:25.572Z,75.20
2022-08-24T12:31:56.186Z,75.34
2022-08-24T12:34:41.444Z,74.62
2022-08-24T12:37:34.915Z,75.19
2022-08-24T12:40:20.046Z,74.66
2022-08-24T12:42:56.145Z,74.58
2022-08-24T12:45:23.674Z,74.58
2022-08-24T12:47:53.029Z,74.34
2022-08-24T12:50:27.354Z,73.82
2022-08-24T12:53:09.022Z,73.30
2022-08-24T12:56:05.542Z,73.15
2022-08-24T12:58:53.978Z,72.93
2022-08-24T13:01:21.954Z,72.97
2022-08-24T13:04:03.450Z,72.86
2022-08-24T13:06:59.590Z,72.59
2022-08-24T13:09:28.763Z,73.52
2022-08-24T13:11:58.790Z,73.44
2022-08-24T13:14:29.613Z,72.67
2022-08-24T13:16:56.423Z,72.03
2022-08-24T13:19:22.741Z,72.80
2022-08-24T13:21:51.959Z,72.64
2022-08-24T13:24:27.603Z,72.28
2022-08-24T13:26:57.847Z,71.41
2022-08-24T13:29:28.351Z,70.55
2022-08-24T13:31:59.287Z,70.33
2022-08-24T13:34:36.046Z,70.70
2022-08-24T13:37:10.307Z,69.74
2022-08-24T13:39:45.679Z,68.84
2022-08-24T13:42:23.206Z,69.85
2022-08-24T13:44:49.545Z,68.78
2022-08-24T13:47:22.746Z,69.24
2022-08-24T13:50:04.408Z,68.79
2022-08-24T13:52:41.293Z,69.50
2022-08-24T13:55:23.396Z,69.80
2022-08-24T13:58:10.746Z,69.93
2022-08-24T14:00:43.913Z,68.85
2022-08-24T14:03:19.099Z,69.09
2022-08-24T14:05:48.611Z,68.55
2022-08-24T14:08:27.708Z,69.32
2022-08-24T14:11:17.114Z,68.50
2022-08-24T14:14:01.949Z,67.47
2022-08-24T14:17:05.957Z,66.89
2022-08-24T14:19:44.943Z,68.04
2022-08-24T14:22:11.250Z,68.45
2022-08-24T14:24:46.079Z,67.72
2022-08-24T14:27:45.419Z,67.38
2022-08-24T14:30:17.822Z,67.46
2022-08-24T14:32:53.330Z,67.29
2022-08-24T14:35:25.225Z,67.38
2022-08-24T14:38:03.850Z,67.22
2022-08-24T14:40:35.040Z,67.76
2022-08-24T14:43:03.860Z,67.56
2022-08-24T14:45:48.907Z,66.89
2022-08-24T14:48:19.796Z,66.69
2022-08-24T14:51:04.934Z,68.06
2022-08-24T14:53:44.070Z,67.94
2022-08-24T14:56:13.124Z,68.77
2022-08-24T14:58:48.229Z,68.13
2022-08-24T15:01:14.612Z,68.68
2022-08-24T15:03:59.801Z,68.16
2022-08-24T15:06:44.938Z,67.76
2022-08-24T15:09:18.981Z,67.59
2022-08-24T15:11:47.296Z,66.63
2022-08-24T15:14:33.792Z,66.96
2022-08-24T15:17:13.784Z,66.80
2022-08-24T15:19:49.425Z,65.50
2022-08-24T15:22:34.569Z,65.76
2022-08-24T15:25:05.942Z,65.79
2022-08-24T15:27:48.319Z,65.16
2022-08-24T15:30:21.348Z,66.39
2022-08-24T15:32:49.461Z,66.51
2022-08-24T15:35:27.311Z,65.27
2022-08-24T15:37:53.705Z,66.21
2022-08-24T15:40:29.434Z,66.83
2022-08-24T15:43:03.878Z,66.61
2022-08-24T15:45:31.050Z,66.89
2022-08-24T15:47:58.076Z,65.75
2022-08-24T15:50:29.563Z,66.55
2022-08-24T15:52:56.208Z,67.61
2022-08-24T15:55:40.323Z,67.03
2022-08-24T15:58:21.994Z,66.83
2022-08-24T16:01:07.165Z,67.04
2022-08-24T16:03:45.308Z,67.15
2022-08-24T16:06:19.394Z,67.39
2022-08-24T16:09:04.465Z,67.43
2022-08-24T16:11:33.489Z,67.97
2022-08-24T16:14:00.287Z,68.32
2022-08-24T16:16:34.424Z,67.37
2022-08-24T16:19:02.282Z,67.98
2022-08-24T16:21:40.033Z,68.35
2022-08-24T16:24:23.002Z,68.94
2022-08-24T16:26:49.326Z,69.46
2022-08-24T16:29:44.822Z,68.43
2022-08-24T16:32:22.087Z,69.31
2022-08-24T16:35:01.095Z,69.82
2022-08-24T16:37:27.425Z,69.85
2022-08-24T16:39:53.813Z,69.35
2022-08-24T16:42:22.490Z,70.94
2022-08-24T16:44:49.380Z,69.77
2022-08-24T16:47:15.697Z,69.16
2022-08-24T16:49:42.169Z,69.43
2022-08-24T16:52:08.886Z,69.38
2022-08-24T16:54:35.262Z,69.46
2022-08-24T16:57:05.262Z,69.40
2022-08-24T16:59:32.673Z,68.99
2022-08-24T17:01:59.584Z,70.28
2022-08-24T17:04:26.108Z,70.15
2022-08-24T17:06:55.516Z,69.89
2022-08-24T17:09:22.161Z,70.19
2022-08-24T17:11:49.547Z,70.52
2022-08-24T17:14:16.377Z,70.32
2022-08-24T17:16:43.361Z,70.76
2022-08-24T17:19:12.188Z,71.55
2022-08-24T17:21:39.228Z,71.00
2022-08-24T17:24:06.602Z,70.74
2022-08-24T17:26:33.194Z,71.09
2022-08-24T17:29:02.418Z,70.90
2022-08-24T17:31:30.968Z,70.82
2022-08-24T17:33:58.098Z,70.95
2022-08-24T17:36:24.912Z,70.77
2022-08-24T17:38:55.702Z,71.44
2022-08-24T17:41:23.012Z,71.80
2022-08-24T17:43:49.503Z,72.96
2022-08-24T17:46:17.244Z,73.32
2022-08-24T17:48:44.692Z,73.07
2022-08-24T17:51:11.034Z,73.06
2022-08-24T17:53:37.437Z,72.93
2022-08-24T17:56:04.201Z,72.98
2022-08-24T17:58:30.541Z,73.48
2022-08-24T18:00:56.889Z,73.63
2022-08-24T18:03:23.238Z,73.45
2022-08-24T18:05:49.656Z,73.57
2022-08-24T18:08:16.030Z,73.20
2022-08-24T18:10:42.353Z,73.67
2022-08-24T18:13:09.526Z,73.44
2022-08-24T18:15:36.486Z,73.62
2022-08-24T18:18:04.273Z,73.19
2022-08-24T18:20:38.449Z,73.75
2022-08-24T18:23:05.051Z,74.12
2022-08-24T18:25:40.174Z,73.63
2022-08-24T18:28:06.524Z,73.37
2022-08-24T18:30:33.040Z,73.26
2022-08-24T18:33:01.745Z,73.42
2022-08-24T18:35:28.214Z,73.43
2022-08-24T18:37:57.783Z,73.27
2022-08-24T18:40:27.133Z,73.40
2022-08-24T18:42:59.752Z,73.49
2022-08-24T18:45:29.407Z,73.23
2022-08-24T18:47:55.800Z,73.63
2022-08-24T18:50:22.198Z,73.81
2022-08-24T18:52:48.728Z,73.87
2022-08-24T18:55:15.192Z,74.26
2022-08-24T18:57:41.502Z,74.44
2022-08-24T19:00:09.794Z,74.98
2022-08-24T19:02:36.504Z,75.07
2022-08-24T19:05:10.754Z,75.20
2022-08-24T19:07:39.846Z,76.15
2022-08-24T19:10:08.520Z,76.42
2022-08-24T19:12:37.859Z,76.67
2022-08-24T19:15:05.223Z,75.75
2022-08-24T19:17:31.615Z,76.37
2022-08-24T19:19:58.497Z,77.16
2022-08-24T19:22:26.021Z,77.29
2022-08-24T19:24:52.923Z,77.04
2022-08-24T19:27:19.542Z,77.26
2022-08-24T19:29:55.553Z,76.84
2022-08-24T19:32:24.218Z,76.67
2022-08-24T19:34:51.755Z,77.12
2022-08-24T19:37:18.503Z,77.57
2022-08-24T19:39:45.879Z,76.86
2022-08-24T19:42:15.258Z,77.07
2022-08-24T19:45:00.333Z,77.30
2022-08-24T19:47:27.142Z,77.18
2022-08-24T19:49:53.573Z,77.60
2022-08-24T19:52:20.334Z,77.46
2022-08-24T19:54:47.151Z,77.79
2022-08-24T19:57:32.311Z,78.37
2022-08-24T19:59:59.885Z,79.21
2022-08-24T20:02:26.608Z,79.33
2022-08-24T20:04:53.005Z,79.06
2022-08-24T20:07:19.353Z,79.72
2022-08-24T20:09:46.100Z,79.31
2022-08-24T20:12:12.953Z,79.09
2022-08-24T20:14:39.703Z,79.02
2022-08-24T20:17:06.477Z,78.79
2022-08-24T20:19:35.023Z,78.32
2022-08-24T20:22:01.358Z,78.26
2022-08-24T20:24:33.648Z,78.65
2022-08-24T20:27:03.066Z,78.56
2022-08-24T20:29:29.458Z,78.39
2022-08-24T20:32:01.195Z,78.32
2022-08-24T20:34:27.695Z,78.35
2022-08-24T20:36:54.023Z,78.19
2022-08-24T20:39:22.810Z,78.25
2022-08-24T20:41:49.259Z,78.29
2022-08-24T20:44:15.612Z,78.38
2022-08-24T20:46:42.663Z,79.49
2022-08-24T20:49:15.322Z,79.73
2022-08-24T20:51:43.439Z,79.17
2022-08-24T20:54:10.502Z,78.67
2022-08-24T20:56:37.953Z,78.90
2022-08-24T20:59:05.697Z,79.65
2022-08-24T21:01:32.559Z,79.63
2022-08-24T21:04:04.291Z,80.11
2022-08-24T21:06:31.574Z,79.28
2022-08-24T21:08:57.855Z,79.52
2022-08-24T21:11:24.181Z,80.64
2022-08-24T21:13:50.499Z,80.06
2022-08-24T21:16:16.882Z,79.39
2022-08-24T21:18:43.530Z,79.55
2022-08-24T21:21:10.275Z,80.86
2022-08-24T21:23:36.629Z,81.46
2022-08-24T21:26:04.702Z,80.65
2022-08-24T21:28:31.607Z,80.17
2022-08-24T21:31:00.484Z,81.34
2022-08-24T21:33:47.483Z,81.00
2022-08-24T21:36:14.862Z,81.43
2022-08-24T21:38:41.212Z,82.10
2022-08-24T21:41:11.837Z,82.24
2022-08-24T21:43:38.169Z,82.53
2022-08-24T21:46:05.731Z,82.05
2022-08-24T21:48:32.159Z,81.44
2022-08-24T21:50:58.510Z,81.59
2022-08-24T21:53:28.704Z,81.28
2022-08-24T21:55:55.905Z,81.02
2022-08-24T21:58:23.939Z,80.80
2022-08-24T22:00:51.077Z,81.26
2022-08-24T22:03:17.432Z,81.01
2022-08-24T22:05:43.805Z,80.76
2022-08-24T22:08:10.155Z,81.43
2022-08-24T22:10:36.483Z,80.49
2022-08-24T22:13:04.754Z,80.69
2022-08-24T22:15:33.098Z,80.72
2022-08-24T22:17:59.944Z,81.20
2022-08-24T22:20:26.357Z,80.81
2022-08-24T22:22:52.691Z,80.18
2022-08-24T22:25:19.082Z,80.18
2022-08-24T22:27:45.908Z,80.81
2022-08-24T22:30:13.513Z,81.03
2022-08-24T22:32:39.817Z,81.13
2022-08-24T22:35:06.346Z,81.06
2022-08-24T22:37:34.885Z,82.59
2022-08-24T22:40:01.587Z,82.28
2022-08-24T22:42:28.405Z,83.43
2022-08-24T22:44:54.870Z,83.60
2022-08-24T22:47:24.168Z,83.69
2022-08-24T22:49:50.488Z,82.42
2022-08-24T22:52:16.839Z,84.52
2022-08-24T22:54:43.175Z,83.06
2022-08-24T22:57:09.587Z,82.86
2022-08-24T22:59:38.153Z,82.94
2022-08-24T23:02:06.364Z,84.62
2022-08-24T23:04:35.099Z,84.32
2022-08-24T23:07:02.265Z,84.77
2022-08-24T23:09:28.641Z,84.86
2022-08-24T23:12:09.000Z,84.29
2022-08-24T23:14:35.411Z,84.73
2022-08-24T23:17:02.152Z,84.55
2022-08-24T23:19:47.201Z,83.22
2022-08-24T23:22:15.356Z,83.65
2022-08-24T23:24:43.758Z,83.65
2022-08-24T23:27:10.939Z,84.63
2022-08-24T23:29:37.643Z,85.27
2022-08-24T23:32:04.339Z,84.58
2022-08-24T23:34:30.663Z,83.94
2022-08-24T23:36:56.968Z,83.83
2022-08-24T23:39:23.323Z,82.74
2022-08-24T23:41:49.668Z,82.78
2022-08-24T23:44:20.762Z,83.11
2022-08-24T23:46:47.556Z,83.03
2022-08-24T23:49:15.126Z,83.03
2022-08-24T23:51:41.925Z,83.11
2022-08-24T23:54:09.953Z,83.52
2022-08-24T23:56:37.752Z,82.51
2022-08-24T23:59:06.461Z,83.14
